sensor_id;sensor_type;location;lat;lon;timestamp;pressure;altitude;pressure_sealevel;temperature;humidity
60373;BME280;46216;52.220;5.134;2023-03-21T00:01:52;101786.19;;;10.18;100.00
60373;BME280;46216;52.220;5.134;2023-03-21T00:04:19;101784.63;;;10.14;100.00
60373;BME280;46216;52.220;5.134;2023-03-21T00:06:45;101781.19;;;10.12;100.00
60373;BME280;46216;52.220;5.134;2023-03-21T00:09:10;101779.59;;;10.09;100.00
60373;BME280;46216;52.220;5.134;2023-03-21T00:11:36;101773.41;;;10.09;100.00
60373;BME280;46216;52.220;5.134;2023-03-21T00:14:01;101774.25;;;10.09;100.00
60373;BME280;46216;52.220;5.134;2023-03-21T00:16:27;101766.34;;;10.08;100.00
60373;BME280;46216;52.220;5.134;2023-03-21T00:19:00;101773.47;;;10.07;100.00
60373;BME280;46216;52.220;5.134;2023-03-21T00:21:28;101766.50;;;10.05;100.00
60373;BME280;46216;52.220;5.134;2023-03-21T00:23:56;101766.44;;;10.06;100.00
60373;BME280;46216;52.220;5.134;2023-03-21T00:26:22;101768.25;;;10.06;100.00
60373;BME280;46216;52.220;5.134;2023-03-21T00:28:50;101764.91;;;10.02;100.00
60373;BME280;46216;52.220;5.134;2023-03-21T00:31:15;101769.00;;;10.08;100.00
60373;BME280;46216;52.220;5.134;2023-03-21T00:33:42;101763.78;;;10.06;100.00
60373;BME280;46216;52.220;5.134;2023-03-21T00:36:08;101762.13;;;10.04;100.00
60373;BME280;46216;52.220;5.134;2023-03-21T00:38:35;101763.84;;;10.05;100.00
60373;BME280;46216;52.220;5.134;2023-03-21T00:41:05;101754.25;;;10.02;100.00
60373;BME280;46216;52.220;5.134;2023-03-21T00:43:31;101751.56;;;10.02;100.00
60373;BME280;46216;52.220;5.134;2023-03-21T00:45:57;101756.97;;;10.01;100.00
60373;BME280;46216;52.220;5.134;2023-03-21T00:48:24;101746.94;;;10.06;100.00
60373;BME280;46216;52.220;5.134;2023-03-21T00:50:51;101752.44;;;10.03;100.00
60373;BME280;46216;52.220;5.134;2023-03-21T00:53:18;101756.69;;;10.05;100.00
60373;BME280;46216;52.220;5.134;2023-03-21T00:55:44;101744.34;;;10.04;100.00
60373;BME280;46216;52.220;5.134;2023-03-21T00:58:10;101741.84;;;10.01;100.00
60373;BME280;46216;52.220;5.134;2023-03-21T01:00:36;101741.69;;;10.04;100.00
60373;BME280;46216;52.220;5.134;2023-03-21T01:03:06;101736.34;;;10.04;100.00
60373;BME280;46216;52.220;5.134;2023-03-21T01:05:35;101729.31;;;10.03;100.00
60373;BME280;46216;52.220;5.134;2023-03-21T01:08:21;101728.34;;;10.04;100.00
60373;BME280;46216;52.220;5.134;2023-03-21T01:10:48;101730.00;;;10.07;100.00
60373;BME280;46216;52.220;5.134;2023-03-21T01:13:15;101721.22;;;10.05;100.00
60373;BME280;46216;52.220;5.134;2023-03-21T01:15:45;101711.63;;;10.02;100.00
60373;BME280;46216;52.220;5.134;2023-03-21T01:18:12;101719.69;;;10.01;100.00
60373;BME280;46216;52.220;5.134;2023-03-21T01:20:40;101725.00;;;10.01;100.00
60373;BME280;46216;52.220;5.134;2023-03-21T01:23:06;101714.19;;;10.04;100.00
60373;BME280;46216;52.220;5.134;2023-03-21T01:25:32;101714.97;;;10.06;100.00
60373;BME280;46216;52.220;5.134;2023-03-21T01:27:57;101707.16;;;10.03;100.00
60373;BME280;46216;52.220;5.134;2023-03-21T01:30:22;101708.19;;;10.00;100.00
60373;BME280;46216;52.220;5.134;2023-03-21T01:32:48;101699.16;;;10.03;100.00
60373;BME280;46216;52.220;5.134;2023-03-21T01:35:14;101703.44;;;10.05;100.00
60373;BME280;46216;52.220;5.134;2023-03-21T01:37:39;101695.81;;;9.99;100.00
60373;BME280;46216;52.220;5.134;2023-03-21T01:40:05;101695.72;;;10.01;100.00
60373;BME280;46216;52.220;5.134;2023-03-21T01:42:31;101699.34;;;10.00;100.00
60373;BME280;46216;52.220;5.134;2023-03-21T01:44:59;101688.75;;;9.98;100.00
60373;BME280;46216;52.220;5.134;2023-03-21T01:47:25;101688.69;;;10.00;100.00
60373;BME280;46216;52.220;5.134;2023-03-21T01:49:54;101682.91;;;9.91;100.00
60373;BME280;46216;52.220;5.134;2023-03-21T01:52:41;101690.84;;;9.93;100.00
60373;BME280;46216;52.220;5.134;2023-03-21T01:55:09;101685.25;;;9.98;100.00
60373;BME280;46216;52.220;5.134;2023-03-21T01:57:43;101686.38;;;9.93;100.00
60373;BME280;46216;52.220;5.134;2023-03-21T02:00:11;101680.88;;;9.97;100.00
60373;BME280;46216;52.220;5.134;2023-03-21T02:02:38;101675.44;;;9.98;100.00
60373;BME280;46216;52.220;5.134;2023-03-21T02:05:17;101674.69;;;9.96;100.00
60373;BME280;46216;52.220;5.134;2023-03-21T02:07:46;101677.25;;;9.98;100.00
60373;BME280;46216;52.220;5.134;2023-03-21T02:10:12;101669.25;;;9.98;100.00
60373;BME280;46216;52.220;5.134;2023-03-21T02:12:38;101661.38;;;9.96;100.00
60373;BME280;46216;52.220;5.134;2023-03-21T02:15:05;101654.41;;;9.93;100.00
60373;BME280;46216;52.220;5.134;2023-03-21T02:17:49;101648.06;;;9.96;100.00
60373;BME280;46216;52.220;5.134;2023-03-21T02:22:59;101642.81;;;9.94;100.00
60373;BME280;46216;52.220;5.134;2023-03-21T02:25:36;101649.09;;;9.93;100.00
60373;BME280;46216;52.220;5.134;2023-03-21T02:28:13;101649.09;;;9.93;100.00
60373;BME280;46216;52.220;5.134;2023-03-21T02:31:06;101645.63;;;9.91;100.00
60373;BME280;46216;52.220;5.134;2023-03-21T02:33:47;101639.28;;;9.94;100.00
60373;BME280;46216;52.220;5.134;2023-03-21T02:38:58;101642.06;;;9.92;100.00
60373;BME280;46216;52.220;5.134;2023-03-21T02:44:18;101636.81;;;9.91;100.00
60373;BME280;46216;52.220;5.134;2023-03-21T02:46:50;101634.81;;;9.94;100.00
60373;BME280;46216;52.220;5.134;2023-03-21T02:49:55;101636.91;;;9.89;100.00
60373;BME280;46216;52.220;5.134;2023-03-21T02:52:28;101627.09;;;9.90;100.00
60373;BME280;46216;52.220;5.134;2023-03-21T02:54:56;101626.81;;;9.94;100.00
60373;BME280;46216;52.220;5.134;2023-03-21T02:57:22;101630.44;;;9.93;100.00
60373;BME280;46216;52.220;5.134;2023-03-21T02:59:49;101629.50;;;9.94;100.00
60373;BME280;46216;52.220;5.134;2023-03-21T03:02:16;101628.56;;;9.95;100.00
60373;BME280;46216;52.220;5.134;2023-03-21T03:04:43;101624.28;;;9.93;100.00
60373;BME280;46216;52.220;5.134;2023-03-21T03:07:34;101620.75;;;9.92;100.00
60373;BME280;46216;52.220;5.134;2023-03-21T03:16:03;101628.47;;;9.81;100.00
60373;BME280;46216;52.220;5.134;2023-03-21T03:26:16;101614.13;;;9.84;100.00
60373;BME280;46216;52.220;5.134;2023-03-21T03:28:46;101614.81;;;9.87;100.00
60373;BME280;46216;52.220;5.134;2023-03-21T03:31:17;101603.75;;;9.79;100.00
60373;BME280;46216;52.220;5.134;2023-03-21T03:33:48;101609.66;;;9.84;100.00
60373;BME280;46216;52.220;5.134;2023-03-21T03:36:19;101610.44;;;9.86;100.00
60373;BME280;46216;52.220;5.134;2023-03-21T03:38:48;101607.00;;;9.84;100.00
60373;BME280;46216;52.220;5.134;2023-03-21T03:41:26;101614.06;;;9.85;100.00
60373;BME280;46216;52.220;5.134;2023-03-21T03:43:54;101607.97;;;9.83;100.00
60373;BME280;46216;52.220;5.134;2023-03-21T03:46:29;101604.50;;;9.81;100.00
60373;BME280;46216;52.220;5.134;2023-03-21T03:49:01;101605.28;;;9.83;100.00
60373;BME280;46216;52.220;5.134;2023-03-21T03:51:56;101597.47;;;9.80;100.00
60373;BME280;46216;52.220;5.134;2023-03-21T03:54:35;101593.88;;;9.81;100.00
60373;BME280;46216;52.220;5.134;2023-03-21T03:57:02;101595.84;;;9.78;100.00
60373;BME280;46216;52.220;5.134;2023-03-21T03:59:28;101593.97;;;9.80;100.00
60373;BME280;46216;52.220;5.134;2023-03-21T04:01:54;101595.78;;;9.79;100.00
60373;BME280;46216;52.220;5.134;2023-03-21T04:04:19;101595.00;;;9.77;100.00
60373;BME280;46216;52.220;5.134;2023-03-21T04:06:47;101593.13;;;9.79;100.00
60373;BME280;46216;52.220;5.134;2023-03-21T04:09:16;101593.13;;;9.79;100.00
60373;BME280;46216;52.220;5.134;2023-03-21T04:11:42;101587.97;;;9.76;100.00
60373;BME280;46216;52.220;5.134;2023-03-21T04:14:08;101589.84;;;9.74;100.00
60373;BME280;46216;52.220;5.134;2023-03-21T04:16:33;101583.50;;;9.77;100.00
60373;BME280;46216;52.220;5.134;2023-03-21T04:18:59;101587.97;;;9.76;100.00
60373;BME280;46216;52.220;5.134;2023-03-21T04:21:24;101578.63;;;9.69;100.00
60373;BME280;46216;52.220;5.134;2023-03-21T04:23:51;101587.28;;;9.73;100.00
60373;BME280;46216;52.220;5.134;2023-03-21T04:26:19;101580.31;;;9.70;100.00
60373;BME280;46216;52.220;5.134;2023-03-21T04:28:45;101585.56;;;9.71;100.00
60373;BME280;46216;52.220;5.134;2023-03-21T04:31:11;101588.47;;;9.67;100.00
60373;BME280;46216;52.220;5.134;2023-03-21T04:33:37;101584.00;;;9.67;100.00
60373;BME280;46216;52.220;5.134;2023-03-21T04:36:05;101571.66;;;9.66;100.00
60373;BME280;46216;52.220;5.134;2023-03-21T04:38:31;101569.09;;;9.65;100.00
60373;BME280;46216;52.220;5.134;2023-03-21T04:40:58;101568.81;;;9.69;100.00
60373;BME280;46216;52.220;5.134;2023-03-21T04:43:24;101574.16;;;9.69;100.00
60373;BME280;46216;52.220;5.134;2023-03-21T04:45:50;101574.03;;;9.71;100.00
60373;BME280;46216;52.220;5.134;2023-03-21T04:48:16;101575.78;;;9.72;100.00
60373;BME280;46216;52.220;5.134;2023-03-21T04:50:44;101574.94;;;9.71;100.00
60373;BME280;46216;52.220;5.134;2023-03-21T04:53:09;101584.69;;;9.71;100.00
60373;BME280;46216;52.220;5.134;2023-03-21T04:55:35;101570.47;;;9.72;100.00
60373;BME280;46216;52.220;5.134;2023-03-21T04:58:02;101579.38;;;9.71;100.00
60373;BME280;46216;52.220;5.134;2023-03-21T05:00:28;101574.22;;;9.68;100.00
60373;BME280;46216;52.220;5.134;2023-03-21T05:02:53;101568.88;;;9.68;100.00
60373;BME280;46216;52.220;5.134;2023-03-21T05:05:19;101568.31;;;9.63;100.00
60373;BME280;46216;52.220;5.134;2023-03-21T05:07:44;101570.81;;;9.66;100.00
60373;BME280;46216;52.220;5.134;2023-03-21T05:10:10;101564.78;;;9.62;100.00
60373;BME280;46216;52.220;5.134;2023-03-21T05:12:37;101576.13;;;9.66;100.00
60373;BME280;46216;52.220;5.134;2023-03-21T05:15:02;101570.03;;;9.64;100.00
60373;BME280;46216;52.220;5.134;2023-03-21T05:17:28;101561.28;;;9.62;100.00
60373;BME280;46216;52.220;5.134;2023-03-21T05:19:54;101566.00;;;9.57;100.00
60373;BME280;46216;52.220;5.134;2023-03-21T05:22:21;101565.03;;;9.58;100.00
60373;BME280;46216;52.220;5.134;2023-03-21T05:24:49;101565.81;;;9.60;100.00
60373;BME280;46216;52.220;5.134;2023-03-21T05:27:19;101565.81;;;9.60;100.00
60373;BME280;46216;52.220;5.134;2023-03-21T05:32:30;101552.44;;;9.61;100.00
60373;BME280;46216;52.220;5.134;2023-03-21T05:34:55;101557.66;;;9.63;100.00
60373;BME280;46216;52.220;5.134;2023-03-21T05:37:21;101551.38;;;9.64;100.00
60373;BME280;46216;52.220;5.134;2023-03-21T05:39:46;101558.44;;;9.65;100.00
60373;BME280;46216;52.220;5.134;2023-03-21T05:42:12;101555.00;;;9.63;100.00
60373;BME280;46216;52.220;5.134;2023-03-21T05:44:37;101562.03;;;9.64;100.00
60373;BME280;46216;52.220;5.134;2023-03-21T05:47:05;101552.16;;;9.66;100.00
60373;BME280;46216;52.220;5.134;2023-03-21T05:49:30;101551.31;;;9.65;100.00
60373;BME280;46216;52.220;5.134;2023-03-21T05:51:56;101553.97;;;9.65;100.00
60373;BME280;46216;52.220;5.134;2023-03-21T05:54:21;101549.34;;;9.69;100.00
60373;BME280;46216;52.220;5.134;2023-03-21T05:56:47;101558.06;;;9.71;100.00
60373;BME280;46216;52.220;5.134;2023-03-21T05:59:12;101546.56;;;9.70;100.00
60373;BME280;46216;52.220;5.134;2023-03-21T06:01:37;101544.88;;;9.69;100.00
60373;BME280;46216;52.220;5.134;2023-03-21T06:04:03;101550.00;;;9.73;100.00
60373;BME280;46216;52.220;5.134;2023-03-21T06:06:28;101545.53;;;9.73;100.00
60373;BME280;46216;52.220;5.134;2023-03-21T06:08:54;101555.16;;;9.76;100.00
60373;BME280;46216;52.220;5.134;2023-03-21T06:11:25;101550.88;;;9.73;100.00
60373;BME280;46216;52.220;5.134;2023-03-21T06:13:50;101550.75;;;9.75;100.00
60373;BME280;46216;52.220;5.134;2023-03-21T06:16:16;101556.03;;;9.76;100.00
60373;BME280;46216;52.220;5.134;2023-03-21T06:18:41;101550.53;;;9.79;100.00
60373;BME280;46216;52.220;5.134;2023-03-21T06:21:07;101557.72;;;9.77;100.00
60373;BME280;46216;52.220;5.134;2023-03-21T06:23:32;101555.75;;;9.81;100.00
60373;BME280;46216;52.220;5.134;2023-03-21T06:25:57;101559.25;;;9.81;100.00
60373;BME280;46216;52.220;5.134;2023-03-21T06:28:23;101559.19;;;9.83;100.00
60373;BME280;46216;52.220;5.134;2023-03-21T06:30:48;101555.50;;;9.85;100.00
60373;BME280;46216;52.220;5.134;2023-03-21T06:33:13;101555.50;;;9.85;100.00
60373;BME280;46216;52.220;5.134;2023-03-21T06:35:39;101556.25;;;9.87;100.00
60373;BME280;46216;52.220;5.134;2023-03-21T06:38:04;101550.91;;;9.87;100.00
60373;BME280;46216;52.220;5.134;2023-03-21T06:40:30;101564.22;;;9.87;100.00
60373;BME280;46216;52.220;5.134;2023-03-21T06:42:55;101557.03;;;9.89;100.00
60373;BME280;46216;52.220;5.134;2023-03-21T06:45:20;101553.59;;;9.87;100.00
60373;BME280;46216;52.220;5.134;2023-03-21T06:47:46;101557.03;;;9.89;100.00
60373;BME280;46216;52.220;5.134;2023-03-21T06:50:11;101559.69;;;9.89;100.00
60373;BME280;46216;52.220;5.134;2023-03-21T06:52:37;101558.72;;;9.90;100.00
60373;BME280;46216;52.220;5.134;2023-03-21T06:55:02;101558.06;;;9.87;100.00
60373;BME280;46216;52.220;5.134;2023-03-21T06:57:28;101557.03;;;9.89;100.00
60373;BME280;46216;52.220;5.134;2023-03-21T06:59:53;101558.72;;;9.90;100.00
60373;BME280;46216;52.220;5.134;2023-03-21T07:02:18;101556.91;;;9.91;100.00
60373;BME280;46216;52.220;5.134;2023-03-21T07:04:44;101562.41;;;9.88;100.00
60373;BME280;46216;52.220;5.134;2023-03-21T07:07:09;101556.91;;;9.91;100.00
60373;BME280;46216;52.220;5.134;2023-03-21T07:09:34;101566.72;;;9.90;100.00
60373;BME280;46216;52.220;5.134;2023-03-21T07:12:00;101563.19;;;9.90;100.00
60373;BME280;46216;52.220;5.134;2023-03-21T07:14:26;101563.38;;;9.87;100.00
60373;BME280;46216;52.220;5.134;2023-03-21T07:16:51;101566.03;;;9.87;100.00
60373;BME280;46216;52.220;5.134;2023-03-21T07:19:19;101563.47;;;9.85;100.00
60373;BME280;46216;52.220;5.134;2023-03-21T07:21:44;101559.88;;;9.86;100.00
60373;BME280;46216;52.220;5.134;2023-03-21T07:24:10;101562.53;;;9.86;100.00
60373;BME280;46216;52.220;5.134;2023-03-21T07:26:35;101560.81;;;9.85;100.00
60373;BME280;46216;52.220;5.134;2023-03-21T07:29:01;101560.66;;;9.88;100.00
60373;BME280;46216;52.220;5.134;2023-03-21T07:31:27;101557.88;;;9.90;100.00
60373;BME280;46216;52.220;5.134;2023-03-21T07:33:52;101556.16;;;9.89;100.00
60373;BME280;46216;52.220;5.134;2023-03-21T07:36:18;101546.44;;;9.88;100.00
60373;BME280;46216;52.220;5.134;2023-03-21T07:38:44;101542.00;;;9.88;100.00
60373;BME280;46216;52.220;5.134;2023-03-21T07:41:10;101524.97;;;9.91;100.00
60373;BME280;46216;52.220;5.134;2023-03-21T07:43:38;101526.59;;;9.93;100.00
60373;BME280;46216;52.220;5.134;2023-03-21T07:46:04;101526.59;;;9.93;100.00
60373;BME280;46216;52.220;5.134;2023-03-21T07:48:30;101524.53;;;9.99;100.00
60373;BME280;46216;52.220;5.134;2023-03-21T07:50:55;101512.34;;;9.94;100.00
60373;BME280;46216;52.220;5.134;2023-03-21T07:53:21;101520.25;;;9.96;100.00
60373;BME280;46216;52.220;5.134;2023-03-21T07:55:53;101522.72;;;9.99;100.00
60373;BME280;46216;52.220;5.134;2023-03-21T07:58:21;101531.41;;;10.03;100.00
60373;BME280;46216;52.220;5.134;2023-03-21T08:00:47;101528.72;;;10.03;100.00
60373;BME280;46216;52.220;5.134;2023-03-21T08:03:13;101525.22;;;10.02;100.00
60373;BME280;46216;52.220;5.134;2023-03-21T08:05:39;101526.06;;;10.03;100.00
60373;BME280;46216;52.220;5.134;2023-03-21T08:08:05;101523.31;;;10.04;100.00
60373;BME280;46216;52.220;5.134;2023-03-21T08:10:31;101524.75;;;10.10;100.00
60373;BME280;46216;52.220;5.134;2023-03-21T08:12:56;101524.56;;;10.13;100.00
60373;BME280;46216;52.220;5.134;2023-03-21T08:15:22;101518.19;;;10.15;100.00
60373;BME280;46216;52.220;5.134;2023-03-21T08:17:47;101521.63;;;10.17;100.00
60373;BME280;46216;52.220;5.134;2023-03-21T08:20:16;101518.97;;;10.17;100.00
60373;BME280;46216;52.220;5.134;2023-03-21T08:22:42;101506.06;;;10.26;100.00
60373;BME280;46216;52.220;5.134;2023-03-21T08:25:09;101511.19;;;10.29;100.00
60373;BME280;46216;52.220;5.134;2023-03-21T08:27:38;101508.34;;;10.32;100.00
60373;BME280;46216;52.220;5.134;2023-03-21T08:30:04;101501.88;;;10.36;100.00
60373;BME280;46216;52.220;5.134;2023-03-21T08:32:29;101496.09;;;10.29;100.00
60373;BME280;46216;52.220;5.134;2023-03-21T08:35:02;101497.44;;;10.36;100.00
60373;BME280;46216;52.220;5.134;2023-03-21T08:37:28;101498.94;;;10.40;100.00
60373;BME280;46216;52.220;5.134;2023-03-21T08:39:54;101500.41;;;10.46;100.00
60373;BME280;46216;52.220;5.134;2023-03-21T08:42:20;101490.66;;;10.45;100.00
60373;BME280;46216;52.220;5.134;2023-03-21T08:44:47;101489.13;;;10.41;100.00
60373;BME280;46216;52.220;5.134;2023-03-21T08:47:13;101490.66;;;10.45;100.00
60373;BME280;46216;52.220;5.134;2023-03-21T08:49:38;101481.53;;;10.49;100.00
60373;BME280;46216;52.220;5.134;2023-03-21T08:52:05;101480.47;;;10.52;100.00
60373;BME280;46216;52.220;5.134;2023-03-21T08:54:30;101468.78;;;10.54;100.00
60373;BME280;46216;52.220;5.134;2023-03-21T08:56:56;101466.59;;;10.61;100.00
60373;BME280;46216;52.220;5.134;2023-03-21T08:59:21;101467.25;;;10.64;100.00
60373;BME280;46216;52.220;5.134;2023-03-21T09:01:47;101464.66;;;10.63;100.00
60373;BME280;46216;52.220;5.134;2023-03-21T09:04:12;101464.19;;;10.71;100.00
60373;BME280;46216;52.220;5.134;2023-03-21T09:06:38;101462.38;;;10.71;100.00
60373;BME280;46216;52.220;5.134;2023-03-21T09:09:10;101462.09;;;10.76;100.00
60373;BME280;46216;52.220;5.134;2023-03-21T09:11:35;101461.81;;;10.80;100.00
60373;BME280;46216;52.220;5.134;2023-03-21T09:14:01;101455.22;;;10.86;100.00
60373;BME280;46216;52.220;5.134;2023-03-21T09:16:26;101457.59;;;10.91;100.00
60373;BME280;46216;52.220;5.134;2023-03-21T09:18:52;101453.47;;;10.99;100.00
60373;BME280;46216;52.220;5.134;2023-03-21T09:21:20;101448.91;;;11.01;100.00
60373;BME280;46216;52.220;5.134;2023-03-21T09:23:47;101453.94;;;11.06;100.00
60373;BME280;46216;52.220;5.134;2023-03-21T09:26:18;101447.44;;;11.10;100.00
60373;BME280;46216;52.220;5.134;2023-03-21T09:28:43;101453.41;;;11.13;100.00
60373;BME280;46216;52.220;5.134;2023-03-21T09:31:11;101446.84;;;11.19;100.00
60373;BME280;46216;52.220;5.134;2023-03-21T09:33:37;101436.94;;;11.21;100.00
60373;BME280;46216;52.220;5.134;2023-03-21T09:36:05;101436.75;;;11.24;100.00
60373;BME280;46216;52.220;5.134;2023-03-21T09:38:35;101433.75;;;11.29;100.00
60373;BME280;46216;52.220;5.134;2023-03-21T09:46:28;101451.53;;;11.43;100.00
60373;BME280;46216;52.220;5.134;2023-03-21T09:49:00;101435.38;;;11.44;100.00
60373;BME280;46216;52.220;5.134;2023-03-21T09:51:33;101446.84;;;11.46;100.00
60373;BME280;46216;52.220;5.134;2023-03-21T09:54:13;101424.81;;;11.43;100.00
60373;BME280;46216;52.220;5.134;2023-03-21T09:56:43;101422.81;;;11.46;100.00
60373;BME280;46216;52.220;5.134;2023-03-21T09:59:19;101441.03;;;11.40;100.00
60373;BME280;46216;52.220;5.134;2023-03-21T10:01:46;101437.84;;;11.47;100.00
60373;BME280;46216;52.220;5.134;2023-03-21T10:04:14;101432.31;;;11.50;100.00
60373;BME280;46216;52.220;5.134;2023-03-21T10:06:56;101423.06;;;11.56;100.00
60373;BME280;46216;52.220;5.134;2023-03-21T10:09:23;101432.22;;;11.65;100.00
60373;BME280;46216;52.220;5.134;2023-03-21T10:12:01;101434.25;;;11.61;100.00
60373;BME280;46216;52.220;5.134;2023-03-21T10:14:29;101425.50;;;11.72;100.00
60373;BME280;46216;52.220;5.134;2023-03-21T10:17:05;101427.03;;;11.76;100.00
60373;BME280;46216;52.220;5.134;2023-03-21T10:19:33;101415.28;;;11.78;100.00
60373;BME280;46216;52.220;5.134;2023-03-21T10:22:00;101418.91;;;11.77;100.00
60373;BME280;46216;52.220;5.134;2023-03-21T10:24:26;101423.84;;;11.83;100.00
60373;BME280;46216;52.220;5.134;2023-03-21T10:26:53;101418.19;;;11.88;100.00
60373;BME280;46216;52.220;5.134;2023-03-21T10:29:23;101417.25;;;11.89;100.00
60373;BME280;46216;52.220;5.134;2023-03-21T10:31:51;101412.44;;;11.94;100.00
60373;BME280;46216;52.220;5.134;2023-03-21T10:34:35;101409.22;;;12.02;100.00
60373;BME280;46216;52.220;5.134;2023-03-21T10:37:02;101407.84;;;12.09;100.00
60373;BME280;46216;52.220;5.134;2023-03-21T10:39:38;101404.09;;;12.12;100.00
60373;BME280;46216;52.220;5.134;2023-03-21T10:42:05;101385.53;;;12.10;100.00
60373;BME280;46216;52.220;5.134;2023-03-21T10:44:34;101398.97;;;12.21;100.00
60373;BME280;46216;52.220;5.134;2023-03-21T10:47:08;101392.44;;;12.25;100.00
60373;BME280;46216;52.220;5.134;2023-03-21T10:49:36;101397.34;;;12.31;100.00
60373;BME280;46216;52.220;5.134;2023-03-21T10:52:06;101403.13;;;12.38;100.00
60373;BME280;46216;52.220;5.134;2023-03-21T10:54:33;101415.63;;;12.38;100.00
60373;BME280;46216;52.220;5.134;2023-03-21T10:57:07;101418.41;;;12.36;100.00
60373;BME280;46216;52.220;5.134;2023-03-21T10:59:44;101414.22;;;12.45;100.00
60373;BME280;46216;52.220;5.134;2023-03-21T11:02:18;101405.56;;;12.41;100.00
60373;BME280;46216;52.220;5.134;2023-03-21T11:04:44;101417.53;;;12.36;100.00
60373;BME280;46216;52.220;5.134;2023-03-21T11:07:13;101412.41;;;12.32;100.00
60373;BME280;46216;52.220;5.134;2023-03-21T11:09:45;101415.50;;;12.39;100.00
60373;BME280;46216;52.220;5.134;2023-03-21T11:12:13;101407.19;;;12.44;100.00
60373;BME280;46216;52.220;5.134;2023-03-21T11:14:49;101411.00;;;12.40;100.00
60373;BME280;46216;52.220;5.134;2023-03-21T11:19:40;101400.66;;;12.48;100.00
60373;BME280;46216;52.220;5.134;2023-03-21T11:22:06;101391.22;;;12.42;100.00
60373;BME280;46216;52.220;5.134;2023-03-21T11:24:33;101394.25;;;12.38;100.00
60373;BME280;46216;52.220;5.134;2023-03-21T11:27:04;101378.56;;;12.33;100.00
60373;BME280;46216;52.220;5.134;2023-03-21T11:29:36;101376.19;;;12.28;100.00
60373;BME280;46216;52.220;5.134;2023-03-21T11:32:37;101375.22;;;12.29;100.00
60373;BME280;46216;52.220;5.134;2023-03-21T11:35:13;101380.88;;;12.38;100.00
60373;BME280;46216;52.220;5.134;2023-03-21T11:37:45;101346.63;;;12.43;100.00
60373;BME280;46216;52.220;5.134;2023-03-21T11:40:56;101349.41;;;12.54;100.00
60373;BME280;46216;52.220;5.134;2023-03-21T11:45:55;101360.84;;;12.80;100.00
60373;BME280;46216;52.220;5.134;2023-03-21T11:48:21;101359.44;;;12.87;100.00
60373;BME280;46216;52.220;5.134;2023-03-21T11:50:49;101355.19;;;12.85;100.00
60373;BME280;46216;52.220;5.134;2023-03-21T11:53:37;101357.22;;;12.81;100.00
60373;BME280;46216;52.220;5.134;2023-03-21T12:10:29;101344.19;;;12.76;100.00
60373;BME280;46216;52.220;5.134;2023-03-21T12:16:03;101354.81;;;12.65;100.00
60373;BME280;46216;52.220;5.134;2023-03-21T12:22:27;101352.31;;;12.75;100.00
60373;BME280;46216;52.220;5.134;2023-03-21T12:25:02;101329.63;;;12.81;100.00
60373;BME280;46216;52.220;5.134;2023-03-21T12:30:30;101321.50;;;13.17;100.00
60373;BME280;46216;52.220;5.134;2023-03-21T12:35:59;101321.69;;;13.27;100.00
60373;BME280;46216;52.220;5.134;2023-03-21T12:38:40;101318.16;;;13.27;100.00
60373;BME280;46216;52.220;5.134;2023-03-21T12:43:46;101301.94;;;13.63;100.00
60373;BME280;46216;52.220;5.134;2023-03-21T12:49:02;101293.97;;;14.29;100.00
60373;BME280;46216;52.220;5.134;2023-03-21T12:51:38;101288.72;;;14.39;100.00
60373;BME280;46216;52.220;5.134;2023-03-21T12:54:28;101273.63;;;14.38;100.00
60373;BME280;46216;52.220;5.134;2023-03-21T12:57:18;101268.38;;;14.48;100.00
60373;BME280;46216;52.220;5.134;2023-03-21T13:00:25;101268.19;;;14.72;100.00
60373;BME280;46216;52.220;5.134;2023-03-21T13:03:01;101253.69;;;14.74;100.00
60373;BME280;46216;52.220;5.134;2023-03-21T13:05:34;101243.97;;;14.62;100.00
60373;BME280;46216;52.220;5.134;2023-03-21T13:08:06;101251.91;;;14.52;100.00
60373;BME280;46216;52.220;5.134;2023-03-21T13:10:34;101243.38;;;14.47;100.00
60373;BME280;46216;52.220;5.134;2023-03-21T13:15:46;101256.63;;;14.16;100.00
60373;BME280;46216;52.220;5.134;2023-03-21T13:18:43;101255.03;;;14.03;100.00
60373;BME280;46216;52.220;5.134;2023-03-21T13:24:03;101257.63;;;13.70;100.00
60373;BME280;46216;52.220;5.134;2023-03-21T13:26:40;101263.59;;;13.63;100.00
60373;BME280;46216;52.220;5.134;2023-03-21T13:29:43;101259.66;;;13.44;100.00
60373;BME280;46216;52.220;5.134;2023-03-21T13:34:54;101268.53;;;13.34;100.00
60373;BME280;46216;52.220;5.134;2023-03-21T13:37:20;101267.50;;;13.23;100.00
60373;BME280;46216;52.220;5.134;2023-03-21T13:39:47;101252.16;;;13.14;100.00
60373;BME280;46216;52.220;5.134;2023-03-21T13:42:22;101255.56;;;13.16;100.00
60373;BME280;46216;52.220;5.134;2023-03-21T13:44:52;101244.00;;;13.16;100.00
60373;BME280;46216;52.220;5.134;2023-03-21T13:50:24;101245.25;;;13.23;100.00
60373;BME280;46216;52.220;5.134;2023-03-21T13:53:10;101244.34;;;13.35;100.00
60373;BME280;46216;52.220;5.134;2023-03-21T13:55:47;101239.47;;;13.40;100.00
60373;BME280;46216;52.220;5.134;2023-03-21T13:58:58;101241.53;;;13.37;100.00
60373;BME280;46216;52.220;5.134;2023-03-21T14:01:31;101236.91;;;13.39;100.00
60373;BME280;46216;52.220;5.134;2023-03-21T14:07:50;101242.69;;;13.21;100.00
60373;BME280;46216;52.220;5.134;2023-03-21T14:09:59;101238.94;;;13.24;100.00
60373;BME280;46216;52.220;5.134;2023-03-21T14:12:38;101239.50;;;13.16;100.00
60373;BME280;46216;52.220;5.134;2023-03-21T14:15:12;101224.91;;;13.09;100.00
60373;BME280;46216;52.220;5.134;2023-03-21T14:17:48;101220.53;;;13.08;100.00
60373;BME280;46216;52.220;5.134;2023-03-21T14:20:19;101215.91;;;13.10;100.00